createdAt,value
2019-03-04T00:01:43.767Z,32.00
2019-03-04T00:04:13.657Z,29.72
2019-03-04T00:06:43.392Z,25.12
2019-03-04T00:09:13.398Z,28.17
2019-03-04T00:11:43.109Z,28.65
2019-03-04T00:14:12.840Z,29.98
2019-03-04T00:16:42.543Z,29.75
2019-03-04T00:19:12.234Z,32.28
2019-03-04T00:21:41.949Z,29.07
2019-03-04T00:24:11.763Z,27.50
2019-03-04T00:26:41.479Z,31.70
2019-03-04T00:29:11.182Z,26.17
2019-03-04T00:31:41.207Z,25.65
2019-03-04T00:34:10.895Z,27.07
2019-03-04T00:36:40.681Z,25.12
2019-03-04T00:39:11.558Z,29.57
2019-03-04T00:41:41.527Z,37.23
2019-03-04T00:44:11.181Z,23.60
2019-03-04T00:46:40.898Z,27.95
2019-03-04T00:49:10.548Z,22.93
2019-03-04T00:51:40.197Z,21.23
2019-03-04T00:54:10.218Z,26.95
2019-03-04T00:56:39.926Z,23.83
2019-03-04T00:59:09.677Z,20.62
2019-03-04T01:01:39.385Z,22.77
2019-03-04T01:04:09.086Z,26.75
2019-03-04T01:06:38.757Z,15.88
2019-03-04T01:09:10.662Z,22.52
2019-03-04T01:11:40.349Z,18.67
2019-03-04T01:14:10.076Z,19.13
2019-03-04T01:16:39.781Z,20.85
2019-03-04T01:19:09.502Z,21.82
2019-03-04T01:21:39.220Z,21.07
2019-03-04T01:24:08.896Z,19.75
2019-03-04T01:26:38.623Z,15.40
2019-03-04T01:29:08.303Z,16.55
2019-03-04T01:31:38.089Z,22.27
2019-03-04T01:34:07.933Z,16.60
2019-03-04T01:36:38.670Z,19.40
2019-03-04T01:39:08.594Z,17.92
2019-03-04T01:41:38.313Z,19.20
2019-03-04T01:44:08.126Z,18.40
2019-03-04T01:46:37.912Z,15.20
2019-03-04T01:49:08.551Z,22.15
2019-03-04T01:51:38.268Z,16.67
2019-03-04T01:54:07.965Z,18.23
2019-03-04T01:56:37.698Z,16.75
2019-03-04T01:59:07.348Z,18.73
2019-03-04T02:01:37.106Z,18.35
2019-03-04T02:04:06.817Z,20.97
2019-03-04T02:06:36.528Z,18.75
2019-03-04T02:09:07.084Z,20.88
2019-03-04T02:11:37.681Z,17.27
2019-03-04T02:14:07.393Z,15.40
2019-03-04T02:16:37.180Z,17.52
2019-03-04T02:19:07.960Z,16.80
2019-03-04T02:21:37.664Z,17.90
2019-03-04T02:24:32.753Z,23.18
2019-03-04T02:27:02.567Z,19.85
2019-03-04T02:29:32.389Z,14.63
2019-03-04T02:32:02.093Z,15.98
2019-03-04T02:34:31.781Z,16.80
2019-03-04T02:37:01.508Z,20.17
2019-03-04T02:39:31.304Z,17.17
2019-03-04T02:42:01.062Z,16.77
2019-03-04T02:44:30.731Z,18.90
2019-03-04T02:47:00.523Z,15.85
2019-03-04T02:49:30.269Z,14.43
2019-03-04T02:51:59.959Z,22.22
2019-03-04T02:54:29.683Z,14.90
2019-03-04T02:56:59.460Z,18.65
2019-03-04T02:59:29.196Z,19.17
2019-03-04T03:01:59.003Z,19.63
2019-03-04T03:04:28.708Z,15.15
2019-03-04T03:06:58.478Z,18.92
2019-03-04T03:09:28.142Z,18.50
2019-03-04T03:11:57.874Z,25.25
2019-03-04T03:14:27.551Z,16.67
2019-03-04T03:16:57.285Z,20.97
2019-03-04T03:19:26.972Z,23.73
2019-03-04T03:21:56.958Z,19.13
2019-03-04T03:24:26.616Z,20.97
2019-03-04T03:26:56.318Z,19.32
2019-03-04T03:29:26.048Z,22.52
2019-03-04T03:31:55.837Z,20.82
2019-03-04T03:34:26.504Z,17.27
2019-03-04T03:36:56.276Z,19.63
2019-03-04T03:39:26.022Z,17.80
2019-03-04T03:41:55.732Z,23.63
2019-03-04T03:44:25.543Z,19.33
2019-03-04T03:46:55.310Z,17.87
2019-03-04T03:49:25.059Z,19.17
2019-03-04T03:51:54.830Z,21.57
2019-03-04T03:54:24.652Z,18.07
2019-03-04T03:56:54.361Z,16.57
2019-03-04T03:59:24.110Z,20.43
2019-03-04T04:01:53.953Z,21.48
2019-03-04T04:04:23.608Z,19.92
2019-03-04T04:06:53.418Z,22.50
2019-03-04T04:09:23.157Z,18.30
2019-03-04T04:11:52.910Z,17.90
2019-03-04T04:14:22.647Z,15.10
2019-03-04T04:16:52.292Z,21.55
2019-03-04T04:19:21.927Z,16.87
2019-03-04T04:21:51.559Z,18.48
2019-03-04T04:24:21.238Z,19.92
2019-03-04T04:26:50.907Z,19.87
2019-03-04T04:29:20.542Z,15.05
2019-03-04T04:31:50.187Z,16.33
2019-03-04T04:34:19.873Z,15.30
2019-03-04T04:36:49.656Z,17.10
2019-03-04T04:39:19.310Z,17.70
2019-03-04T04:41:48.929Z,14.50
2019-03-04T04:44:18.576Z,19.27
2019-03-04T04:46:58.921Z,17.48
2019-03-04T04:49:32.891Z,16.80
2019-03-04T04:52:02.595Z,17.43
2019-03-04T04:54:32.321Z,15.87
2019-03-04T04:57:02.139Z,13.73
2019-03-04T04:59:31.998Z,16.10
2019-03-04T05:02:01.865Z,16.55
2019-03-04T05:04:31.619Z,12.37
2019-03-04T05:07:02.250Z,12.80
2019-03-04T05:09:32.201Z,13.85
2019-03-04T05:12:01.861Z,11.28
2019-03-04T05:14:31.584Z,14.33
2019-03-04T05:17:01.300Z,11.73
2019-03-04T05:19:30.980Z,10.03
2019-03-04T05:22:00.799Z,11.50
2019-03-04T05:24:30.497Z,13.30
2019-03-04T05:27:00.234Z,12.93
2019-03-04T05:29:29.923Z,8.93
2019-03-04T05:31:59.632Z,9.73
2019-03-04T05:34:29.268Z,11.53
2019-03-04T05:36:58.924Z,11.38
2019-03-04T05:39:28.554Z,9.43
2019-03-04T05:41:58.192Z,8.10
2019-03-04T05:44:27.835Z,10.25
2019-03-04T05:49:34.860Z,12.23
2019-03-04T05:52:04.937Z,13.40
2019-03-04T05:54:34.555Z,13.70
2019-03-04T05:57:04.959Z,20.40
2019-03-04T05:59:34.582Z,10.03
2019-03-04T06:02:07.793Z,9.43
2019-03-04T06:04:38.343Z,16.27
2019-03-04T06:07:12.171Z,9.43
2019-03-04T06:09:41.878Z,7.37
2019-03-04T06:12:11.581Z,11.97
2019-03-04T06:14:41.224Z,14.73
2019-03-04T06:17:11.960Z,10.03
2019-03-04T06:19:41.622Z,9.78
2019-03-04T06:22:11.344Z,7.90
2019-03-04T06:24:41.109Z,10.10
2019-03-04T06:27:10.740Z,9.43
2019-03-04T06:29:40.372Z,9.95
2019-03-04T06:32:10.025Z,11.43
2019-03-04T06:34:40.049Z,9.30
2019-03-04T06:37:09.761Z,12.03
2019-03-04T06:39:39.427Z,10.65
2019-03-04T06:42:09.115Z,8.93
2019-03-04T06:44:38.782Z,9.25
2019-03-04T06:47:08.404Z,11.10
2019-03-04T06:49:38.026Z,9.25
2019-03-04T06:52:07.649Z,10.38
2019-03-04T06:55:21.781Z,8.48
2019-03-04T06:57:52.639Z,8.30
2019-03-04T07:00:49.307Z,11.97
2019-03-04T07:03:24.755Z,8.97
2019-03-04T07:05:54.553Z,12.98
2019-03-04T07:08:59.674Z,9.88
2019-03-04T07:11:30.297Z,8.60
2019-03-04T07:13:59.978Z,12.20
2019-03-04T07:16:29.609Z,8.63
2019-03-04T07:18:59.248Z,8.30
2019-03-04T07:21:28.873Z,9.40
2019-03-04T07:23:58.536Z,13.22
2019-03-04T07:26:29.178Z,12.68
2019-03-04T07:28:59.114Z,7.40
2019-03-04T07:31:28.908Z,7.37
2019-03-04T07:33:58.577Z,6.13
2019-03-04T07:36:28.199Z,12.93
2019-03-04T07:38:59.377Z,6.22
2019-03-04T07:41:34.189Z,6.87
2019-03-04T07:44:05.227Z,10.25
2019-03-04T07:46:34.842Z,8.20
2019-03-04T07:49:05.131Z,11.57
2019-03-04T07:51:35.137Z,8.33
2019-03-04T07:54:05.469Z,7.80
2019-03-04T07:56:35.097Z,9.75
2019-03-04T07:59:05.087Z,10.45
2019-03-04T08:01:34.754Z,7.67
2019-03-04T08:04:05.288Z,9.75
2019-03-04T08:06:35.005Z,9.55
2019-03-04T08:09:54.320Z,8.80
2019-03-04T08:13:05.239Z,9.53
2019-03-04T08:15:40.230Z,7.83
2019-03-04T08:18:09.862Z,6.40
2019-03-04T08:20:39.595Z,6.35
2019-03-04T08:23:10.217Z,13.45
2019-03-04T08:25:39.983Z,8.60
2019-03-04T08:28:11.911Z,8.48
2019-03-04T08:30:41.714Z,7.85
2019-03-04T08:33:11.497Z,9.48
2019-03-04T08:35:41.309Z,8.40
2019-03-04T08:38:11.211Z,7.67
2019-03-04T08:40:40.951Z,9.68
2019-03-04T08:43:10.648Z,14.30
2019-03-04T08:45:40.401Z,8.93
2019-03-04T08:48:10.027Z,7.75
2019-03-04T08:50:39.804Z,7.90
2019-03-04T08:53:09.418Z,7.65
2019-03-04T08:55:39.125Z,4.17
2019-03-04T08:58:09.590Z,8.13
2019-03-04T09:00:39.447Z,8.00
2019-03-04T09:03:09.244Z,9.20
2019-03-04T09:05:38.886Z,5.85
2019-03-04T09:08:08.543Z,4.53
2019-03-04T09:10:38.342Z,5.15
2019-03-04T09:13:07.947Z,6.08
2019-03-04T09:15:37.606Z,6.22
2019-03-04T09:18:07.346Z,5.50
2019-03-04T09:20:37.050Z,5.03
2019-03-04T09:23:06.780Z,5.37
2019-03-04T09:25:39.382Z,5.65
2019-03-04T09:28:09.370Z,5.53
2019-03-04T09:30:39.070Z,5.25
2019-03-04T09:33:09.132Z,5.85
2019-03-04T09:35:38.761Z,10.43
2019-03-04T09:38:08.392Z,4.55
2019-03-04T09:40:38.211Z,8.78
2019-03-04T09:43:08.067Z,4.75
2019-03-04T09:45:39.168Z,6.55
2019-03-04T09:48:09.186Z,4.78
2019-03-04T09:50:38.860Z,5.22
2019-03-04T09:53:08.492Z,6.47
2019-03-04T09:55:38.221Z,5.92
2019-03-04T09:58:07.942Z,8.53
2019-03-04T10:00:39.957Z,3.85
2019-03-04T10:03:59.640Z,9.63
2019-03-04T10:06:45.932Z,5.50
2019-03-04T10:09:35.920Z,4.80
2019-03-04T10:12:21.006Z,6.62
2019-03-04T10:15:24.996Z,2.43
2019-03-04T10:18:29.071Z,4.87
2019-03-04T10:21:30.341Z,2.17
2019-03-04T10:24:29.297Z,4.63
2019-03-04T10:27:17.628Z,3.03
2019-03-04T10:30:07.911Z,3.97
2019-03-04T10:33:34.142Z,4.43
2019-03-04T10:36:15.817Z,1.47
2019-03-04T10:39:10.520Z,1.50
2019-03-04T10:41:50.503Z,0.87
2019-03-04T10:44:42.802Z,2.27
2019-03-04T10:47:12.438Z,1.17
2019-03-04T10:49:42.093Z,1.00
2019-03-04T10:52:11.712Z,2.23
2019-03-04T10:54:41.368Z,1.27
2019-03-04T10:57:10.991Z,4.57
2019-03-04T10:59:40.646Z,2.67
2019-03-04T11:02:10.451Z,2.60
2019-03-04T11:04:40.070Z,2.57
2019-03-04T11:07:10.069Z,4.97
2019-03-04T11:09:40.677Z,5.67
2019-03-04T11:12:10.323Z,1.27
2019-03-04T11:14:39.964Z,4.00
2019-03-04T11:17:09.624Z,1.40
2019-03-04T11:19:39.293Z,2.90
2019-03-04T11:22:09.170Z,3.20
2019-03-04T11:24:38.890Z,5.03
2019-03-04T11:27:08.517Z,1.50
2019-03-04T11:29:38.166Z,3.13
2019-03-04T11:32:08.526Z,5.40
2019-03-04T11:34:38.156Z,5.43
2019-03-04T11:37:07.771Z,2.30
2019-03-04T11:39:54.755Z,3.20
2019-03-04T11:42:24.359Z,2.63
2019-03-04T11:44:53.995Z,7.90
2019-03-04T11:47:27.273Z,2.93
2019-03-04T11:49:56.942Z,5.17
2019-03-04T11:52:26.971Z,6.33
2019-03-04T11:54:56.607Z,4.27
2019-03-04T11:57:26.403Z,6.17
2019-03-04T11:59:56.191Z,2.80
2019-03-04T12:02:38.290Z,6.50
2019-03-04T12:05:00.310Z,2.50
2019-03-04T12:07:29.954Z,5.23
2019-03-04T12:09:59.587Z,5.07
2019-03-04T12:12:29.234Z,6.33
2019-03-04T12:14:58.879Z,4.20
2019-03-04T12:17:28.593Z,3.47
2019-03-04T12:19:58.480Z,7.10
2019-03-04T12:22:28.108Z,4.27
2019-03-04T12:24:57.809Z,3.93
2019-03-04T12:27:27.438Z,3.37
2019-03-04T12:29:57.172Z,3.07
2019-03-04T12:32:32.347Z,3.47
2019-03-04T12:35:02.019Z,2.83
2019-03-04T12:37:31.704Z,1.03
2019-03-04T12:40:01.424Z,4.10
2019-03-04T12:42:31.248Z,2.23
2019-03-04T12:45:00.868Z,1.57
2019-03-04T12:47:31.481Z,4.47
2019-03-04T12:50:01.139Z,3.23
2019-03-04T12:52:30.828Z,2.90
2019-03-04T12:55:00.493Z,1.30
2019-03-04T12:57:30.181Z,5.33
2019-03-04T12:59:59.841Z,1.20
2019-03-04T13:02:29.499Z,4.33
2019-03-04T13:04:59.107Z,1.97
2019-03-04T13:07:28.951Z,1.70
2019-03-04T13:09:58.585Z,2.20
2019-03-04T13:12:28.217Z,1.33
2019-03-04T13:14:57.828Z,4.07
2019-03-04T13:17:27.472Z,4.17
2019-03-04T13:19:57.105Z,3.23
2019-03-04T13:22:26.809Z,5.60
2019-03-04T13:24:56.427Z,2.73
2019-03-04T13:27:26.055Z,2.60
2019-03-04T13:29:55.714Z,4.40
2019-03-04T13:32:25.334Z,2.87
2019-03-04T13:34:56.522Z,3.23
2019-03-04T13:37:26.234Z,4.73
2019-03-04T13:39:55.903Z,4.27
2019-03-04T13:42:25.527Z,5.33
2019-03-04T13:44:55.151Z,5.40
2019-03-04T13:47:24.778Z,5.03
2019-03-04T13:49:54.474Z,5.57
2019-03-04T13:52:24.124Z,4.57
2019-03-04T13:54:53.752Z,3.00
2019-03-04T13:57:23.451Z,3.37
2019-03-04T13:59:53.079Z,3.50
2019-03-04T14:02:22.776Z,3.60
2019-03-04T14:04:52.379Z,4.83
2019-03-04T14:07:22.085Z,2.70
2019-03-04T14:09:51.690Z,1.90
2019-03-04T14:12:21.357Z,6.90
2019-03-04T14:14:50.999Z,2.27
2019-03-04T14:17:20.708Z,3.33
2019-03-04T14:19:50.348Z,3.63
2019-03-04T14:22:20.005Z,2.80
2019-03-04T14:24:49.642Z,2.97
2019-03-04T14:27:19.360Z,3.80
2019-03-04T14:29:49.236Z,3.27
2019-03-04T14:32:18.988Z,3.57
2019-03-04T14:34:48.642Z,6.63
2019-03-04T14:37:18.345Z,2.50
2019-03-04T14:39:48.015Z,2.53
2019-03-04T14:42:17.655Z,4.10
2019-03-04T14:44:47.609Z,4.27
2019-03-04T14:47:17.221Z,2.40
2019-03-04T14:49:46.874Z,3.40
2019-03-04T14:52:16.582Z,6.17
2019-03-04T14:54:46.308Z,4.37
2019-03-04T14:57:15.922Z,4.70
2019-03-04T14:59:45.585Z,2.70
2019-03-04T15:02:15.208Z,4.45
2019-03-04T15:04:44.874Z,3.17
2019-03-04T15:07:14.520Z,3.97
2019-03-04T15:09:49.286Z,3.93
2019-03-04T15:12:15.469Z,3.07
2019-03-04T15:14:45.117Z,3.40
2019-03-04T15:17:19.425Z,2.60
2019-03-04T15:19:49.107Z,4.23
2019-03-04T15:22:18.730Z,2.67
2019-03-04T15:24:48.382Z,5.30
2019-03-04T15:27:18.072Z,5.20
2019-03-04T15:29:47.773Z,2.00
2019-03-04T15:32:17.429Z,4.30
2019-03-04T15:34:47.042Z,4.13
2019-03-04T15:37:16.928Z,3.07
2019-03-04T15:39:46.622Z,5.17
2019-03-04T15:42:16.261Z,3.30
2019-03-04T15:44:45.911Z,2.83
2019-03-04T15:47:15.538Z,3.43
2019-03-04T15:49:45.172Z,1.70
2019-03-04T15:52:15.249Z,3.90
2019-03-04T15:54:45.207Z,3.53
2019-03-04T15:57:14.895Z,4.00
2019-03-04T15:59:44.796Z,5.73
2019-03-04T16:02:15.649Z,1.77
2019-03-04T16:04:45.441Z,3.33
2019-03-04T16:07:15.667Z,2.75
2019-03-04T16:09:45.556Z,2.17
2019-03-04T16:12:17.934Z,2.23
2019-03-04T16:14:47.574Z,3.63
2019-03-04T16:17:17.361Z,3.47
2019-03-04T16:19:47.024Z,2.83
2019-03-04T16:22:16.793Z,2.63
2019-03-04T16:24:46.656Z,2.83
2019-03-04T16:27:16.676Z,2.23
2019-03-04T16:29:46.512Z,1.73
2019-03-04T16:32:16.247Z,2.97
2019-03-04T16:34:45.889Z,2.80
2019-03-04T16:37:15.543Z,1.97
2019-03-04T16:39:45.159Z,3.30
2019-03-04T16:42:15.981Z,2.43
2019-03-04T16:44:45.845Z,1.37
2019-03-04T16:47:15.627Z,2.67
2019-03-04T16:49:45.690Z,3.57
2019-03-04T16:52:15.643Z,4.40
2019-03-04T16:54:45.486Z,1.33
2019-03-04T16:57:16.241Z,1.67
2019-03-04T16:59:46.246Z,2.63
2019-03-04T17:02:16.175Z,3.20
2019-03-04T17:04:46.861Z,4.50
2019-03-04T17:07:16.657Z,1.80
2019-03-04T17:09:46.385Z,1.97
2019-03-04T17:12:16.524Z,3.97
2019-03-04T17:14:46.195Z,2.93
2019-03-04T17:17:16.126Z,5.13
2019-03-04T17:19:45.833Z,4.27
2019-03-04T17:22:15.760Z,7.23
2019-03-04T17:24:45.726Z,4.47
2019-03-04T17:27:15.630Z,5.57
2019-03-04T17:29:45.290Z,4.83
2019-03-04T17:32:15.404Z,4.80
2019-03-04T17:34:45.108Z,5.97
2019-03-04T17:37:14.856Z,9.27
2019-03-04T17:39:44.576Z,11.17
2019-03-04T17:42:14.399Z,11.87
2019-03-04T17:44:44.038Z,11.60
2019-03-04T17:47:13.720Z,10.33
2019-03-04T17:49:43.390Z,13.73
2019-03-04T17:52:13.030Z,12.33
2019-03-04T17:54:42.710Z,5.23
2019-03-04T17:57:12.428Z,10.23
2019-03-04T17:59:42.198Z,13.47
2019-03-04T18:02:11.944Z,11.50
2019-03-04T18:04:41.627Z,4.23
2019-03-04T18:07:11.353Z,6.43
2019-03-04T18:09:41.102Z,9.03
2019-03-04T18:12:10.822Z,16.37
2019-03-04T18:14:40.478Z,12.27
2019-03-04T18:17:11.215Z,10.80
2019-03-04T18:19:41.481Z,14.50
2019-03-04T18:22:11.152Z,8.73
2019-03-04T18:24:40.859Z,7.37
2019-03-04T18:27:35.086Z,16.33
2019-03-04T18:30:24.878Z,13.77
2019-03-04T18:33:55.119Z,12.63
2019-03-04T18:37:07.451Z,10.57
2019-03-04T18:40:00.456Z,11.17
2019-03-04T18:42:58.754Z,9.07
2019-03-04T18:46:24.911Z,10.03
2019-03-04T18:48:56.406Z,13.43
2019-03-04T18:51:27.344Z,14.97
2019-03-04T18:53:59.566Z,15.13
2019-03-04T18:56:29.418Z,14.27
2019-03-04T18:58:59.262Z,14.77
2019-03-04T19:01:29.063Z,12.90
2019-03-04T19:03:58.835Z,14.27
2019-03-04T19:06:28.579Z,16.43
2019-03-04T19:08:58.284Z,13.43
2019-03-04T19:11:28.041Z,13.93
2019-03-04T19:13:57.816Z,12.23
2019-03-04T19:16:27.627Z,15.67
2019-03-04T19:18:57.342Z,14.63
2019-03-04T19:21:27.197Z,13.80
2019-03-04T19:23:57.012Z,16.13
2019-03-04T19:26:26.774Z,19.67
2019-03-04T19:28:56.516Z,24.60
2019-03-04T19:31:26.265Z,21.70
2019-03-04T19:33:56.071Z,21.57
2019-03-04T19:36:25.866Z,19.70
2019-03-04T19:38:55.517Z,19.30
2019-03-04T19:41:25.255Z,17.33
2019-03-04T19:43:54.963Z,20.17
2019-03-04T19:46:24.722Z,17.67
2019-03-04T19:48:54.468Z,23.33
2019-03-04T19:51:24.349Z,22.00
2019-03-04T19:53:54.241Z,22.00
2019-03-04T19:56:26.068Z,22.17
2019-03-04T19:58:55.453Z,16.83
2019-03-04T20:01:25.189Z,25.63
2019-03-04T20:03:54.986Z,22.97
2019-03-04T20:06:24.847Z,17.27
2019-03-04T20:08:55.253Z,13.80
2019-03-04T20:11:25.048Z,19.17
2019-03-04T20:13:54.956Z,17.03
2019-03-04T20:16:24.738Z,19.23
2019-03-04T20:18:54.728Z,18.77
2019-03-04T20:21:24.561Z,22.00
2019-03-04T20:23:54.389Z,19.37
2019-03-04T20:26:24.183Z,19.47
2019-03-04T20:28:53.990Z,26.67
2019-03-04T20:31:23.732Z,24.23
2019-03-04T20:33:53.809Z,19.70
2019-03-04T20:36:25.782Z,25.93
2019-03-04T20:38:56.230Z,15.63
2019-03-04T20:41:26.089Z,22.30
2019-03-04T20:43:55.872Z,19.87
2019-03-04T20:46:25.727Z,19.43
2019-03-04T20:48:55.470Z,16.13
2019-03-04T20:51:25.196Z,19.07
2019-03-04T20:53:54.952Z,16.07
2019-03-04T20:56:24.629Z,16.10
2019-03-04T20:58:54.463Z,16.23
2019-03-04T21:01:24.585Z,29.43
2019-03-04T21:03:55.860Z,18.83
2019-03-04T21:06:25.773Z,20.03
2019-03-04T21:08:55.638Z,16.80
2019-03-04T21:11:25.354Z,21.40
2019-03-04T21:13:55.072Z,20.63
2019-03-04T21:16:24.813Z,15.23
2019-03-04T21:18:54.754Z,18.77
2019-03-04T21:21:24.670Z,20.70
2019-03-04T21:23:54.556Z,17.13
2019-03-04T21:26:27.811Z,16.87
2019-03-04T21:29:29.682Z,12.93
2019-03-04T21:32:27.229Z,14.70
2019-03-04T21:35:36.672Z,17.90
2019-03-04T21:38:06.367Z,20.70
2019-03-04T21:40:51.292Z,16.23
2019-03-04T21:43:29.358Z,24.83
2019-03-04T21:46:55.057Z,20.80
2019-03-04T21:49:26.339Z,21.10
2019-03-04T21:52:29.382Z,16.77
2019-03-04T21:55:00.420Z,22.20
2019-03-04T21:57:33.216Z,21.50
2019-03-04T22:00:09.387Z,18.50
2019-03-04T22:03:03.157Z,19.50
2019-03-04T22:05:33.010Z,26.37
2019-03-04T22:08:03.282Z,15.60
2019-03-04T22:10:33.482Z,12.17
2019-03-04T22:13:03.395Z,23.47
2019-03-04T22:15:33.171Z,17.13
2019-03-04T22:18:03.189Z,17.30
2019-03-04T22:20:33.133Z,23.90
2019-03-04T22:23:02.969Z,13.60
2019-03-04T22:25:32.670Z,24.87
2019-03-04T22:28:02.686Z,14.80
2019-03-04T22:30:32.805Z,15.53
2019-03-04T22:33:02.591Z,15.57
2019-03-04T22:35:32.242Z,15.37
2019-03-04T22:38:02.141Z,15.57
2019-03-04T22:40:31.941Z,9.20
2019-03-04T22:43:01.717Z,20.47
2019-03-04T22:45:31.525Z,18.93
2019-03-04T22:48:01.347Z,15.53
2019-03-04T22:50:31.121Z,19.20
2019-03-04T22:53:00.863Z,12.43
2019-03-04T22:55:33.989Z,19.13
2019-03-04T22:58:03.706Z,16.23
2019-03-04T23:01:44.260Z,15.73
2019-03-04T23:04:52.735Z,25.73
2019-03-04T23:07:38.466Z,17.77
2019-03-04T23:10:41.516Z,21.63
2019-03-04T23:13:15.286Z,13.53
2019-03-04T23:15:47.578Z,18.17
2019-03-04T23:18:17.384Z,19.50
2019-03-04T23:20:47.191Z,24.47
2019-03-04T23:23:16.897Z,18.60
2019-03-04T23:25:46.651Z,19.67
2019-03-04T23:28:16.304Z,19.43
2019-03-04T23:30:46.291Z,17.83
2019-03-04T23:33:15.977Z,13.77
2019-03-04T23:35:45.724Z,15.10
2019-03-04T23:38:15.526Z,19.23
2019-03-04T23:40:45.260Z,12.43
2019-03-04T23:43:14.977Z,14.73
2019-03-04T23:45:44.695Z,17.97
2019-03-04T23:48:14.406Z,14.47
2019-03-04T23:50:44.135Z,20.37
2019-03-04T23:53:13.877Z,18.50
2019-03-04T23:55:43.513Z,13.83
2019-03-04T23:58:13.303Z,10.73
